Time;durP1;ratioP1;P1;durP2;ratioP2;P2;SDS_P1;SDS_P2;PMS_P1;PMS_P2;Temp;Humidity;BMP_temperature;BMP_pressure;BME280_temperature;BME280_humidity;BME280_pressure;Samples;Min_cycle;Max_cycle;Signal;HPM_P1;HPM_P2
2021/09/25 00:02:05;;;;;;;7.22;5.57;;;13.30;71.60;;;;;;5053542;28;20041;-69
2021/09/25 00:04:33;;;;;;;6.90;5.57;;;13.20;71.50;;;;;;5052929;28;20029;-69
2021/09/25 00:06:58;;;;;;;6.85;5.07;;;13.20;71.60;;;;;;5054472;28;20032;-69
2021/09/25 00:09:24;;;;;;;6.30;5.30;;;13.10;71.80;;;;;;5055669;28;20574;-69
2021/09/25 00:11:50;;;;;;;8.05;5.18;;;13.10;72.10;;;;;;5053784;28;20032;-69
2021/09/25 00:14:15;;;;;;;4.80;4.40;;;13.10;72.20;;;;;;5053378;28;20059;-69
2021/09/25 00:16:41;;;;;;;6.03;4.68;;;13.00;72.30;;;;;;5054068;28;20158;-69
2021/09/25 00:19:06;;;;;;;4.85;4.22;;;13.00;72.40;;;;;;5052664;28;20442;-68
2021/09/25 00:21:32;;;;;;;4.88;4.38;;;12.90;72.30;;;;;;5054015;28;20037;-69
2021/09/25 00:23:58;;;;;;;5.32;4.65;;;12.90;72.30;;;;;;5053069;28;20035;-69
2021/09/25 00:26:26;;;;;;;4.60;4.00;;;13.00;73.10;;;;;;5053927;28;20603;-69
2021/09/25 00:28:53;;;;;;;4.78;3.50;;;12.90;72.10;;;;;;5055305;28;20056;-70
2021/09/25 00:31:19;;;;;;;6.22;3.80;;;12.90;72.00;;;;;;5056387;28;20091;-69
2021/09/25 00:33:44;;;;;;;5.85;4.10;;;12.80;72.10;;;;;;5053918;28;20033;-70
2021/09/25 00:36:11;;;;;;;4.07;3.67;;;12.80;72.20;;;;;;5053076;28;20036;-70
2021/09/25 00:38:37;;;;;;;5.70;4.40;;;12.80;72.30;;;;;;5056135;28;20371;-69
2021/09/25 00:41:04;;;;;;;4.88;4.38;;;12.80;72.20;;;;;;5055474;28;20059;-69
2021/09/25 00:43:29;;;;;;;5.05;4.05;;;12.80;72.20;;;;;;5054209;28;20154;-69
2021/09/25 00:45:55;;;;;;;4.68;4.10;;;12.80;72.10;;;;;;5055471;28;20052;-69
2021/09/25 00:48:21;;;;;;;4.63;4.10;;;12.80;72.10;;;;;;5054381;28;20039;-70
2021/09/25 00:50:46;;;;;;;4.97;4.15;;;12.80;72.10;;;;;;5053579;28;20032;-68
2021/09/25 00:53:12;;;;;;;6.35;4.13;;;12.70;73.00;;;;;;5054481;28;20634;-69
2021/09/25 00:55:38;;;;;;;4.18;3.78;;;12.60;72.20;;;;;;5049691;28;20025;-68
2021/09/25 00:58:05;;;;;;;5.70;4.43;;;12.60;72.30;;;;;;5059352;28;20119;-69
2021/09/25 01:00:32;;;;;;;5.03;3.90;;;12.60;72.50;;;;;;5057469;28;20025;-69
2021/09/25 01:02:58;;;;;;;4.32;3.92;;;12.60;72.50;;;;;;5058147;28;20032;-67
2021/09/25 01:05:24;;;;;;;5.72;4.25;;;12.50;72.50;;;;;;5054435;28;20081;-69
2021/09/25 01:07:51;;;;;;;5.45;4.18;;;12.50;72.60;;;;;;5045673;28;20033;-69
2021/09/25 01:10:18;;;;;;;4.32;3.92;;;12.50;72.80;;;;;;5046631;28;20470;-67
2021/09/25 01:12:45;;;;;;;4.75;4.25;;;12.40;72.60;;;;;;5047776;28;20090;-69
2021/09/25 01:15:12;;;;;;;4.18;3.78;;;12.40;72.80;;;;;;5052014;28;20047;-69
2021/09/25 01:17:37;;;;;;;5.20;3.85;;;12.40;73.10;;;;;;5056805;28;20040;-69
2021/09/25 01:20:04;;;;;;;4.20;3.80;;;12.30;73.20;;;;;;5056252;28;20037;-69
2021/09/25 01:22:30;;;;;;;4.22;3.83;;;12.30;73.20;;;;;;5046569;28;20053;-69
2021/09/25 01:24:56;;;;;;;4.65;3.67;;;12.30;73.20;;;;;;5054218;28;20029;-69
2021/09/25 01:27:22;;;;;;;4.60;4.20;;;12.30;73.20;;;;;;5052809;28;20115;-68
2021/09/25 01:29:47;;;;;;;4.40;4.00;;;12.30;73.00;;;;;;5054154;28;20041;-69
2021/09/25 01:32:13;;;;;;;5.57;3.95;;;12.20;73.00;;;;;;5046403;28;20036;-69
2021/09/25 01:34:39;;;;;;;5.15;4.10;;;12.20;73.30;;;;;;5055190;28;20037;-69
2021/09/25 01:37:05;;;;;;;4.35;3.95;;;12.20;73.40;;;;;;5047208;28;20134;-70
2021/09/25 01:39:32;;;;;;;5.15;4.13;;;12.10;73.70;;;;;;5052776;28;20029;-69
2021/09/25 01:41:59;;;;;;;6.53;3.78;;;12.10;73.90;;;;;;5051536;28;20033;-68
2021/09/25 01:44:26;;;;;;;4.53;4.07;;;12.10;74.20;;;;;;5051163;28;20033;-70
2021/09/25 01:46:54;;;;;;;4.88;3.67;;;12.10;74.00;;;;;;5051600;28;20040;-68
2021/09/25 01:49:19;;;;;;;4.40;3.90;;;12.20;74.10;;;;;;5050648;28;20037;-69
2021/09/25 01:51:45;;;;;;;4.75;3.92;;;12.10;73.90;;;;;;5048697;28;20037;-68
2021/09/25 01:54:13;;;;;;;4.78;3.85;;;12.20;74.80;;;;;;5057793;28;20071;-68
2021/09/25 01:56:39;;;;;;;4.10;3.70;;;12.10;73.80;;;;;;5055326;28;20025;-69
2021/09/25 01:59:06;;;;;;;4.30;3.83;;;12.20;73.80;;;;;;5056197;28;20044;-69
2021/09/25 02:01:31;;;;;;;4.38;3.83;;;12.20;73.80;;;;;;5048323;28;20037;-68
2021/09/25 02:03:57;;;;;;;3.85;3.35;;;12.20;73.80;;;;;;5051145;28;20155;-69
2021/09/25 02:06:23;;;;;;;4.20;3.72;;;12.20;73.80;;;;;;5046982;28;20500;-69
2021/09/25 02:08:49;;;;;;;4.05;3.58;;;12.20;73.60;;;;;;5053175;28;20041;-67
2021/09/25 02:11:14;;;;;;;3.72;3.42;;;12.20;73.50;;;;;;5051204;28;20116;-69
2021/09/25 02:13:41;;;;;;;4.28;3.88;;;12.20;73.30;;;;;;5047607;28;20094;-69
2021/09/25 02:16:06;;;;;;;4.25;3.85;;;12.20;73.20;;;;;;5051882;28;20048;-70
2021/09/25 02:18:32;;;;;;;4.32;3.92;;;12.20;73.00;;;;;;5047183;28;20029;-69
2021/09/25 02:20:58;;;;;;;4.28;3.88;;;12.20;73.10;;;;;;5045476;28;20037;-69
2021/09/25 02:23:24;;;;;;;4.28;3.88;;;12.20;73.10;;;;;;5047461;28;20037;-69
2021/09/25 02:25:49;;;;;;;5.28;4.00;;;12.20;73.20;;;;;;5052900;28;20044;-70
2021/09/25 02:28:15;;;;;;;4.82;4.32;;;12.10;73.20;;;;;;5048835;28;20060;-69
2021/09/25 02:30:41;;;;;;;5.00;4.50;;;12.10;73.30;;;;;;5048218;28;20419;-68
2021/09/25 02:33:06;;;;;;;4.38;3.97;;;12.10;73.40;;;;;;5051583;28;20045;-69
2021/09/25 02:35:32;;;;;;;4.55;4.15;;;12.10;73.60;;;;;;5054565;28;20115;-69
2021/09/25 02:37:58;;;;;;;5.15;4.65;;;12.10;73.70;;;;;;5049225;28;20059;-70
2021/09/25 02:40:24;;;;;;;5.32;4.65;;;12.10;73.70;;;;;;5046378;28;20036;-70
2021/09/25 02:42:51;;;;;;;5.57;5.00;;;12.10;73.50;;;;;;5054066;28;20040;-69
2021/09/25 02:45:18;;;;;;;5.13;4.63;;;12.10;73.50;;;;;;5047346;28;20115;-69
2021/09/25 02:47:44;;;;;;;7.22;4.82;;;12.10;73.60;;;;;;5050833;28;20167;-69
2021/09/25 02:50:12;;;;;;;6.60;5.40;;;12.10;73.70;;;;;;5049300;28;20044;-69
2021/09/25 02:52:38;;;;;;;5.50;4.88;;;12.10;73.70;;;;;;5045404;28;20041;-69
2021/09/25 02:55:06;;;;;;;6.75;4.93;;;12.10;74.30;;;;;;5052198;28;20060;-69
2021/09/25 02:57:31;;;;;;;6.40;5.20;;;12.10;73.30;;;;;;5049654;28;20043;-69
2021/09/25 02:59:57;;;;;;;4.80;4.30;;;12.10;73.10;;;;;;5049921;28;20033;-69
2021/09/25 03:02:23;;;;;;;6.47;4.93;;;12.10;73.00;;;;;;5052192;28;20532;-68
2021/09/25 03:04:48;;;;;;;4.90;4.40;;;12.10;73.00;;;;;;5043109;28;20116;-69
2021/09/25 03:07:14;;;;;;;5.28;4.68;;;12.00;73.00;;;;;;5051568;28;20033;-69
2021/09/25 03:09:39;;;;;;;5.80;4.65;;;12.10;73.20;;;;;;5044884;28;20036;-69
2021/09/25 03:12:05;;;;;;;6.22;4.90;;;12.00;73.10;;;;;;5043026;28;20066;-68
2021/09/25 03:14:31;;;;;;;5.30;4.80;;;12.00;73.00;;;;;;5043157;28;20024;-69
2021/09/25 03:16:57;;;;;;;5.22;4.70;;;12.00;73.10;;;;;;5043943;28;20104;-68
2021/09/25 03:19:22;;;;;;;5.30;4.80;;;12.00;73.00;;;;;;5042197;28;20033;-68
2021/09/25 03:21:48;;;;;;;7.07;4.55;;;11.90;73.70;;;;;;5044047;28;20033;-69
2021/09/25 03:24:14;;;;;;;5.82;4.63;;;11.90;72.80;;;;;;5044092;28;20048;-68
2021/09/25 03:26:39;;;;;;;7.45;4.40;;;11.90;72.60;;;;;;5045684;28;20045;-68
2021/09/25 03:29:05;;;;;;;4.30;3.67;;;11.90;72.50;;;;;;5050697;28;20028;-68
2021/09/25 03:31:31;;;;;;;5.80;4.05;;;11.80;72.50;;;;;;5044652;28;20035;-68
2021/09/25 03:33:57;;;;;;;4.43;3.85;;;11.80;72.60;;;;;;5056738;28;20043;-69
2021/09/25 03:36:22;;;;;;;5.63;4.45;;;11.70;72.80;;;;;;5057989;28;20056;-70
2021/09/25 03:38:48;;;;;;;4.53;4.10;;;11.70;73.20;;;;;;5055141;28;20037;-69
2021/09/25 03:41:14;;;;;;;4.57;3.97;;;11.60;73.30;;;;;;5051660;28;20111;-68
2021/09/25 03:43:40;;;;;;;4.65;4.15;;;11.60;73.50;;;;;;5051650;28;20555;-69
2021/09/25 03:46:06;;;;;;;5.28;3.85;;;11.60;73.20;;;;;;5045754;28;20039;-69
2021/09/25 03:48:31;;;;;;;4.47;3.97;;;11.60;73.00;;;;;;5043635;28;20040;-73
2021/09/25 03:50:58;;;;;;;5.68;3.80;;;11.50;72.80;;;;;;5051721;28;20029;-68
2021/09/25 03:53:24;;;;;;;4.00;3.50;;;11.50;72.60;;;;;;5048158;28;20599;-69
2021/09/25 03:55:50;;;;;;;4.63;4.00;;;11.40;72.60;;;;;;5044487;28;20499;-68
2021/09/25 03:58:15;;;;;;;5.43;3.88;;;11.40;72.80;;;;;;5051627;28;20029;-68
2021/09/25 04:00:44;;;;;;;4.97;4.30;;;11.40;72.80;;;;;;5051464;28;20090;-69
2021/09/25 04:03:11;;;;;;;4.85;4.40;;;11.30;72.80;;;;;;5049046;28;20214;-69
2021/09/25 04:05:38;;;;;;;5.20;4.68;;;11.30;73.70;;;;;;5052269;28;20036;-69
2021/09/25 04:08:04;;;;;;;4.45;4.05;;;11.20;72.90;;;;;;5048839;28;20052;-69
2021/09/25 04:10:30;;;;;;;5.72;4.70;;;11.20;73.20;;;;;;5050667;28;20029;-69
2021/09/25 04:12:56;;;;;;;5.85;5.07;;;11.10;73.40;;;;;;5050561;28;20408;-69
2021/09/25 04:15:22;;;;;;;5.28;4.78;;;11.00;73.90;;;;;;5048459;28;20035;-69
2021/09/25 04:17:48;;;;;;;6.80;4.60;;;11.00;74.30;;;;;;5047081;28;20037;-68
2021/09/25 04:20:15;;;;;;;4.47;4.07;;;10.90;74.60;;;;;;5051307;28;20536;-69
2021/09/25 04:22:40;;;;;;;5.97;4.28;;;10.90;74.90;;;;;;5049759;28;20025;-69
2021/09/25 04:25:06;;;;;;;4.80;4.30;;;10.90;74.90;;;;;;5052456;28;20033;-69
2021/09/25 04:27:32;;;;;;;4.63;4.10;;;10.90;74.90;;;;;;5046987;28;20033;-69
2021/09/25 04:30:00;;;;;;;4.90;4.45;;;10.90;74.90;;;;;;5055547;28;20041;-69
2021/09/25 04:32:26;;;;;;;4.63;4.13;;;10.90;74.80;;;;;;5052210;28;20453;-68
2021/09/25 04:34:52;;;;;;;6.30;4.80;;;10.90;75.50;;;;;;5053757;28;20491;-68
2021/09/25 04:37:18;;;;;;;5.85;4.57;;;10.90;74.40;;;;;;5051835;28;20036;-69
2021/09/25 04:39:44;;;;;;;4.60;4.15;;;11.00;74.20;;;;;;5046977;28;20088;-68
2021/09/25 04:42:09;;;;;;;6.28;4.22;;;11.00;74.30;;;;;;5048496;28;20103;-68
2021/09/25 04:44:35;;;;;;;5.75;4.15;;;11.00;74.20;;;;;;5046918;28;20039;-69
2021/09/25 04:47:00;;;;;;;5.55;3.90;;;11.00;74.20;;;;;;5053259;28;20043;-68
2021/09/25 04:49:26;;;;;;;5.00;4.50;;;11.00;74.20;;;;;;5051602;28;20500;-68
2021/09/25 04:51:52;;;;;;;5.32;4.05;;;11.00;74.20;;;;;;5051160;28;20020;-68
2021/09/25 04:54:17;;;;;;;5.47;4.35;;;11.10;74.20;;;;;;5050942;28;20061;-69
2021/09/25 04:56:43;;;;;;;5.35;4.20;;;11.10;74.10;;;;;;5054236;28;20045;-70
2021/09/25 04:59:09;;;;;;;6.18;4.43;;;11.10;74.10;;;;;;5053501;28;20037;-68
2021/09/25 05:01:35;;;;;;;6.03;4.78;;;11.10;74.10;;;;;;5042910;28;20045;-68
2021/09/25 05:04:02;;;;;;;5.80;4.60;;;11.10;75.10;;;;;;5044741;28;20041;-68
2021/09/25 05:06:28;;;;;;;7.38;5.15;;;11.20;74.20;;;;;;5049780;28;20032;-69
2021/09/25 05:08:54;;;;;;;6.25;4.82;;;11.20;74.30;;;;;;5054468;28;20442;-68
2021/09/25 05:11:20;;;;;;;6.30;4.78;;;11.20;74.30;;;;;;5043766;28;20050;-69
2021/09/25 05:13:46;;;;;;;9.45;5.45;;;11.20;74.20;;;;;;5056094;28;20557;-68
2021/09/25 05:16:11;;;;;;;7.03;5.30;;;11.20;74.00;;;;;;5048097;28;20032;-68
2021/09/25 05:18:37;;;;;;;8.45;5.35;;;11.20;74.00;;;;;;5046697;28;20056;-69
2021/09/25 05:21:03;;;;;;;11.48;5.35;;;11.20;74.20;;;;;;5053943;28;20041;-67
2021/09/25 05:23:29;;;;;;;7.18;5.20;;;11.20;74.40;;;;;;5042701;28;20030;-69
2021/09/25 05:25:54;;;;;;;9.18;6.07;;;11.20;74.40;;;;;;5041716;28;20456;-68
2021/09/25 05:28:20;;;;;;;8.40;5.85;;;11.10;74.30;;;;;;5049134;28;20040;-68
2021/09/25 05:30:46;;;;;;;9.75;5.68;;;11.10;74.30;;;;;;5046862;28;20099;-68
2021/09/25 05:33:11;;;;;;;8.30;6.15;;;11.10;74.30;;;;;;5046664;28;20033;-68
2021/09/25 05:35:37;;;;;;;8.05;5.82;;;11.20;74.40;;;;;;5047420;28;20523;-70
2021/09/25 05:38:03;;;;;;;8.43;5.80;;;11.10;74.20;;;;;;5055355;28;20044;-68
2021/09/25 05:40:29;;;;;;;8.80;6.35;;;11.10;74.40;;;;;;5057937;28;20029;-68
2021/09/25 05:42:54;;;;;;;9.38;6.10;;;11.10;74.60;;;;;;5056982;28;20436;-68
2021/09/25 05:45:20;;;;;;;10.65;6.57;;;11.10;74.60;;;;;;5054050;28;20029;-67
2021/09/25 05:47:46;;;;;;;8.63;6.35;;;11.10;74.60;;;;;;5055540;28;20032;-70
2021/09/25 05:50:13;;;;;;;8.20;6.07;;;11.10;74.70;;;;;;5058744;28;20037;-68
2021/09/25 05:52:39;;;;;;;7.78;6.28;;;11.10;74.90;;;;;;5055196;28;20178;-68
2021/09/25 05:55:06;;;;;;;11.10;6.75;;;11.10;74.90;;;;;;5056349;28;20136;-68
2021/09/25 05:57:31;;;;;;;7.15;6.00;;;11.20;74.90;;;;;;5058053;28;20063;-68
2021/09/25 05:59:57;;;;;;;8.10;6.10;;;11.20;74.90;;;;;;5070705;28;20501;-69
2021/09/25 06:02:24;;;;;;;7.47;6.00;;;11.20;74.80;;;;;;5046186;28;20029;-69
2021/09/25 06:04:49;;;;;;;7.65;5.90;;;11.20;75.00;;;;;;5051237;28;20151;-69
2021/09/25 06:07:15;;;;;;;7.50;5.63;;;11.20;75.20;;;;;;5052849;28;20124;-69
2021/09/25 06:09:41;;;;;;;11.13;6.03;;;11.20;76.20;;;;;;5051362;28;20511;-69
2021/09/25 06:12:08;;;;;;;6.43;5.65;;;11.20;75.40;;;;;;5069051;28;20411;-69
2021/09/25 06:14:33;;;;;;;7.25;5.78;;;11.30;75.60;;;;;;5054286;28;20043;-69
2021/09/25 06:16:59;;;;;;;10.90;6.20;;;11.30;75.70;;;;;;5056063;28;20033;-69
2021/09/25 06:19:25;;;;;;;8.63;5.97;;;11.30;75.80;;;;;;5050132;28;20032;-70
2021/09/25 06:21:51;;;;;;;9.57;6.20;;;11.40;75.90;;;;;;5054003;28;20044;-67
2021/09/25 06:24:16;;;;;;;11.80;6.85;;;11.40;75.90;;;;;;5051103;28;20053;-69
2021/09/25 06:26:42;;;;;;;9.50;6.75;;;11.50;76.00;;;;;;5053849;28;20068;-69
2021/09/25 06:29:08;;;;;;;7.68;5.97;;;11.50;76.10;;;;;;5052593;28;20116;-68
2021/09/25 06:31:34;;;;;;;10.60;6.93;;;11.60;77.00;;;;;;5051863;28;20124;-69
2021/09/25 06:34:00;;;;;;;9.98;6.43;;;11.60;76.30;;;;;;5056516;28;20028;-69
2021/09/25 06:36:26;;;;;;;9.48;6.20;;;11.70;76.40;;;;;;5055161;28;20470;-70
2021/09/25 06:38:52;;;;;;;12.90;6.75;;;11.70;76.50;;;;;;5053825;28;20050;-69
2021/09/25 06:41:17;;;;;;;12.43;7.03;;;11.80;76.60;;;;;;5038886;28;20044;-69
2021/09/25 06:43:44;;;;;;;13.50;7.55;;;11.80;76.70;;;;;;5050942;28;20041;-69
2021/09/25 06:46:10;;;;;;;10.32;7.32;;;11.90;76.90;;;;;;5039504;28;20143;-69
2021/09/25 06:48:35;;;;;;;11.82;6.65;;;11.90;77.00;;;;;;5047596;28;20143;-69
2021/09/25 06:51:01;;;;;;;10.90;7.05;;;12.00;77.10;;;;;;5045107;28;20032;-68
2021/09/25 06:53:27;;;;;;;10.48;6.82;;;12.00;77.20;;;;;;5047056;28;20029;-70
2021/09/25 06:55:52;;;;;;;13.63;6.90;;;12.10;77.20;;;;;;5045298;28;20033;-70
2021/09/25 06:58:18;;;;;;;8.75;7.10;;;12.10;77.30;;;;;;5046691;28;20037;-69
2021/09/25 07:00:47;;;;;;;11.70;7.43;;;12.20;77.50;;;;;;5042813;28;20515;-70
2021/09/25 07:03:13;;;;;;;12.25;7.10;;;12.30;77.50;;;;;;5045252;28;20052;-69
2021/09/25 07:05:39;;;;;;;14.77;7.88;;;12.30;77.70;;;;;;5051787;28;20163;-69
2021/09/25 07:08:04;;;;;;;12.35;8.00;;;12.40;77.80;;;;;;5053661;28;20721;-69
2021/09/25 07:10:30;;;;;;;14.38;8.48;;;12.40;77.80;;;;;;5051864;28;20036;-69
2021/09/25 07:12:56;;;;;;;13.95;8.07;;;12.50;77.80;;;;;;5057863;28;20017;-69
2021/09/25 07:15:21;;;;;;;11.02;7.13;;;12.60;78.00;;;;;;5057228;28;20041;-70
2021/09/25 07:17:47;;;;;;;11.15;7.55;;;12.70;78.20;;;;;;5056705;28;20408;-67
2021/09/25 07:20:15;;;;;;;12.20;7.90;;;12.70;78.20;;;;;;5054631;28;20037;-67
2021/09/25 07:22:41;;;;;;;11.80;7.60;;;12.80;78.30;;;;;;5055272;28;20048;-67
2021/09/25 07:25:07;;;;;;;12.50;7.85;;;12.90;78.30;;;;;;5054767;28;20129;-67
2021/09/25 07:27:32;;;;;;;10.75;7.90;;;12.90;78.50;;;;;;5056697;28;20115;-67
2021/09/25 07:29:58;;;;;;;12.57;8.27;;;13.00;78.60;;;;;;5054419;28;20466;-67
2021/09/25 07:32:24;;;;;;;11.65;7.80;;;13.10;78.70;;;;;;5049231;28;20518;-66
2021/09/25 07:34:49;;;;;;;14.13;7.38;;;13.20;78.70;;;;;;5054912;28;20033;-67
2021/09/25 07:37:15;;;;;;;10.48;7.72;;;13.30;78.70;;;;;;5055869;28;20029;-67
2021/09/25 07:39:41;;;;;;;12.27;8.00;;;13.30;78.70;;;;;;5050526;28;20029;-67
2021/09/25 07:42:07;;;;;;;12.10;8.25;;;13.40;78.70;;;;;;5048613;28;20102;-67
2021/09/25 07:44:34;;;;;;;11.57;7.75;;;13.50;78.90;;;;;;5053499;28;20044;-67
2021/09/25 07:47:00;;;;;;;10.75;8.05;;;13.60;79.00;;;;;;5053339;28;20064;-67
2021/09/25 07:49:26;;;;;;;15.10;8.82;;;13.70;78.90;;;;;;5055235;28;20530;-67
2021/09/25 07:51:52;;;;;;;16.98;8.90;;;13.70;78.90;;;;;;5052715;28;20036;-66
2021/09/25 07:54:18;;;;;;;12.68;8.45;;;13.80;78.90;;;;;;5051490;28;20036;-67
2021/09/25 07:56:43;;;;;;;11.40;8.30;;;13.90;78.80;;;;;;5056128;28;20187;-66
2021/09/25 07:59:09;;;;;;;18.20;8.80;;;14.00;78.70;;;;;;5055211;28;20051;-67
2021/09/25 08:01:35;;;;;;;10.18;8.00;;;14.10;78.80;;;;;;5055358;28;20036;-67
2021/09/25 08:04:00;;;;;;;12.15;8.02;;;14.20;79.10;;;;;;5056134;28;20040;-66
2021/09/25 08:06:26;;;;;;;12.73;8.55;;;14.20;78.90;;;;;;5059208;28;20119;-67
2021/09/25 08:08:52;;;;;;;13.02;8.20;;;14.40;79.10;;;;;;5060276;28;20044;-67
2021/09/25 08:11:17;;;;;;;43.65;9.95;;;14.40;79.20;;;;;;5057210;28;20427;-67
2021/09/25 08:13:43;;;;;;;14.82;9.32;;;14.50;79.30;;;;;;5056717;28;20496;-67
2021/09/25 08:16:09;;;;;;;15.32;9.10;;;14.60;79.50;;;;;;5053529;28;20040;-67
2021/09/25 08:18:35;;;;;;;11.88;9.23;;;14.70;79.40;;;;;;5053861;28;20029;-67
2021/09/25 08:21:00;;;;;;;15.52;9.65;;;14.90;79.40;;;;;;5059296;28;20025;-67
2021/09/25 08:23:26;;;;;;;13.18;9.70;;;14.90;79.10;;;;;;5068102;28;20107;-67
2021/09/25 08:25:53;;;;;;;14.63;9.52;;;15.00;79.20;;;;;;5059514;28;20074;-67
2021/09/25 08:28:20;;;;;;;10.93;9.18;;;15.10;79.20;;;;;;5056399;28;20032;-67
2021/09/25 08:30:45;;;;;;;10.88;8.80;;;15.20;79.30;;;;;;5060122;28;20067;-68
2021/09/25 08:33:11;;;;;;;12.65;8.77;;;15.40;79.40;;;;;;5058916;28;20033;-65
2021/09/25 08:35:37;;;;;;;10.90;9.18;;;15.50;79.30;;;;;;5057142;28;20063;-67
2021/09/25 08:38:03;;;;;;;15.15;9.18;;;15.60;78.90;;;;;;5057531;28;20116;-67
2021/09/25 08:40:31;;;;;;;11.88;9.18;;;15.70;78.90;;;;;;5058595;28;20511;-66
2021/09/25 08:42:56;;;;;;;14.68;9.52;;;15.80;78.40;;;;;;5056474;28;20039;-67
2021/09/25 08:45:23;;;;;;;11.70;9.55;;;16.00;78.30;;;;;;5057324;28;20496;-67
2021/09/25 08:47:49;;;;;;;10.55;8.60;;;16.00;78.20;;;;;;5055820;28;20040;-66
2021/09/25 08:50:16;;;;;;;10.43;8.75;;;16.20;78.00;;;;;;5055273;28;20041;-67
2021/09/25 08:52:42;;;;;;;11.38;8.77;;;16.30;77.80;;;;;;5047701;28;20025;-67
2021/09/25 08:55:10;;;;;;;11.77;8.68;;;16.30;77.70;;;;;;5048893;28;20040;-67
2021/09/25 08:57:36;;;;;;;13.77;8.43;;;16.40;77.90;;;;;;5056928;28;20021;-67
2021/09/25 09:00:29;;;;;;;9.25;7.63;;;16.50;77.90;;;;;;5060016;28;20036;-67
2021/09/25 09:02:55;;;;;;;9.90;8.43;;;16.60;78.10;;;;;;5055070;28;20035;-66
2021/09/25 09:05:32;;;;;;;9.27;8.18;;;16.80;77.70;;;;;;5058957;28;20041;-67
2021/09/25 09:08:02;;;;;;;10.60;8.15;;;16.90;77.70;;;;;;5057141;28;20035;-67
2021/09/25 09:10:35;;;;;;;9.02;7.80;;;17.00;77.30;;;;;;5054853;28;20091;-66
2021/09/25 09:13:01;;;;;;;9.27;7.97;;;17.10;77.20;;;;;;5057564;28;20029;-66
2021/09/25 09:15:32;;;;;;;10.13;7.60;;;17.20;77.10;;;;;;5054746;28;20040;-67
2021/09/25 09:18:00;;;;;;;8.43;6.72;;;17.40;77.00;;;;;;5054549;28;20039;-67
2021/09/25 09:20:27;;;;;;;7.68;6.88;;;17.50;76.60;;;;;;5048813;28;20503;-67
2021/09/25 09:23:18;;;;;;;9.98;6.13;;;17.60;76.20;;;;;;5052400;28;20037;-67
2021/09/25 09:25:45;;;;;;;5.55;5.05;;;17.80;75.60;;;;;;5059153;28;20120;-67
2021/09/25 09:28:30;;;;;;;6.60;4.93;;;17.80;75.50;;;;;;5056355;28;20055;-67
2021/09/25 09:30:57;;;;;;;5.75;5.18;;;18.00;75.10;;;;;;5054927;28;20435;-67
2021/09/25 09:33:38;;;;;;;5.50;4.88;;;18.10;74.90;;;;;;5054183;28;20193;-67
2021/09/25 09:36:20;;;;;;;5.25;4.75;;;18.20;74.70;;;;;;5055882;28;20397;-67
2021/09/25 09:38:52;;;;;;;4.57;4.18;;;18.30;74.50;;;;;;5054969;28;20056;-67
2021/09/25 09:41:49;;;;;;;4.50;4.10;;;18.50;74.20;;;;;;5056941;28;20045;-67
2021/09/25 09:44:29;;;;;;;3.53;3.22;;;18.60;73.60;;;;;;5053671;28;20041;-67
2021/09/25 09:46:58;;;;;;;3.67;3.38;;;18.70;73.30;;;;;;5055292;28;20393;-67
2021/09/25 09:49:56;;;;;;;3.97;3.28;;;18.90;73.50;;;;;;5055797;28;20067;-67
2021/09/25 09:52:22;;;;;;;3.80;2.90;;;19.10;72.60;;;;;;5028015;28;20087;-67
2021/09/25 09:54:50;;;;;;;4.47;2.90;;;19.20;72.40;;;;;;5036688;28;20091;-67
2021/09/25 09:57:18;;;;;;;3.13;2.92;;;19.30;71.80;;;;;;5035643;28;20505;-67
2021/09/25 09:59:48;;;;;;;3.10;2.90;;;19.50;72.00;;;;;;5037421;28;20060;-67
2021/09/25 10:02:15;;;;;;;4.38;3.15;;;19.60;70.80;;;;;;5050105;28;20029;-67
2021/09/25 10:04:41;;;;;;;3.42;3.00;;;19.70;70.70;;;;;;5056979;28;20033;-67
2021/09/25 10:07:07;;;;;;;3.47;2.90;;;19.80;70.50;;;;;;5049340;28;20312;-67
2021/09/25 10:09:36;;;;;;;3.10;2.75;;;20.00;71.10;;;;;;5057046;28;20557;-67
2021/09/25 10:12:07;;;;;;;3.28;3.05;;;20.10;69.30;;;;;;5053008;28;20110;-67
2021/09/25 10:14:36;;;;;;;2.90;2.53;;;20.20;68.80;;;;;;5056701;28;20028;-67
2021/09/25 10:17:07;;;;;;;2.88;2.67;;;20.30;69.00;;;;;;5057075;28;20112;-67
2021/09/25 10:19:34;;;;;;;4.40;2.90;;;20.40;68.50;;;;;;5045888;28;20496;-67
2021/09/25 10:22:10;;;;;;;2.88;2.67;;;20.50;68.30;;;;;;5048326;28;20043;-67
2021/09/25 10:24:36;;;;;;;3.38;3.10;;;20.60;67.60;;;;;;5045497;28;20409;-67
2021/09/25 10:27:03;;;;;;;3.53;3.22;;;20.70;68.00;;;;;;5047634;28;20062;-68
2021/09/25 10:29:29;;;;;;;2.33;2.22;;;20.70;67.40;;;;;;5056156;28;20029;-67
2021/09/25 10:32:18;;;;;;;3.28;2.85;;;20.80;67.30;;;;;;5058561;28;20025;-67
2021/09/25 10:35:19;;;;;;;2.78;2.58;;;21.00;66.40;;;;;;5057616;28;20136;-67
2021/09/25 10:37:52;;;;;;;3.38;2.50;;;21.10;65.80;;;;;;5055207;28;20028;-67
2021/09/25 10:40:20;;;;;;;2.75;2.55;;;21.20;65.70;;;;;;5057355;28;20048;-66
2021/09/25 10:42:47;;;;;;;2.97;2.78;;;21.30;65.70;;;;;;5056634;28;20042;-67
2021/09/25 10:45:31;;;;;;;2.50;2.30;;;21.40;65.00;;;;;;5051071;28;20041;-68
2021/09/25 10:48:24;;;;;;;2.83;2.22;;;21.50;64.20;;;;;;5052345;28;20029;-67
2021/09/25 10:50:57;;;;;;;3.25;2.80;;;21.50;64.40;;;;;;5053898;28;20047;-68
2021/09/25 10:53:28;;;;;;;2.70;2.38;;;21.60;64.10;;;;;;5054596;28;20047;-67
2021/09/25 10:55:57;;;;;;;2.53;2.30;;;21.70;63.90;;;;;;5058096;28;20504;-68
2021/09/25 10:58:23;;;;;;;4.15;2.58;;;21.80;63.80;;;;;;5055179;28;20424;-68
2021/09/25 11:00:49;;;;;;;2.85;2.38;;;21.90;63.40;;;;;;5052051;28;20656;-67
2021/09/25 11:03:46;;;;;;;2.63;2.42;;;22.00;63.20;;;;;;5045074;28;20035;-68
2021/09/25 11:06:28;;;;;;;2.88;2.67;;;22.10;61.20;;;;;;5058344;28;20086;-68
2021/09/25 11:09:05;;;;;;;2.95;2.40;;;22.20;61.60;;;;;;5068824;28;20037;-68
2021/09/25 11:11:34;;;;;;;4.85;2.70;;;22.20;61.30;;;;;;5052690;28;20118;-68
2021/09/25 11:14:05;;;;;;;7.35;3.30;;;22.30;61.70;;;;;;5054124;28;20059;-68
2021/09/25 11:16:49;;;;;;;2.53;2.33;;;22.40;61.70;;;;;;5053307;28;20025;-68
2021/09/25 11:19:21;;;;;;;3.25;2.30;;;22.40;61.20;;;;;;5054145;28;20115;-67
2021/09/25 11:22:05;;;;;;;2.40;2.20;;;22.50;62.00;;;;;;5052223;28;20039;-67
2021/09/25 11:24:36;;;;;;;2.93;2.73;;;22.60;61.10;;;;;;5048084;28;20039;-66
2021/09/25 11:27:06;;;;;;;2.67;2.45;;;22.70;61.80;;;;;;5049586;28;20346;-68
2021/09/25 11:29:32;;;;;;;2.67;2.47;;;22.80;61.60;;;;;;5055290;28;20423;-68
2021/09/25 11:32:07;;;;;;;2.63;2.30;;;22.90;60.60;;;;;;5052244;28;20167;-67
2021/09/25 11:34:33;;;;;;;;;;;23.00;60.00;;;;;;5048307;28;20101;-68
2021/09/25 11:37:02;;;;;;;2.35;2.20;;;23.00;61.30;;;;;;5052125;28;19916;-67
2021/09/25 11:39:38;;;;;;;2.35;2.15;;;23.10;61.20;;;;;;5052846;28;20452;-67
2021/09/25 11:42:13;;;;;;;2.17;2.08;;;23.20;60.10;;;;;;5054050;28;20120;-68
2021/09/25 11:44:50;;;;;;;;;;;23.20;60.10;;;;;;5055951;28;20020;-68
2021/09/25 11:47:31;;;;;;;2.42;2.30;;;23.40;61.70;;;;;;5054803;28;19922;-67
2021/09/25 11:50:11;;;;;;;3.00;2.35;;;23.40;59.80;;;;;;5053941;28;20046;-68
2021/09/25 11:52:39;;;;;;;2.33;2.03;;;23.50;58.80;;;;;;5054571;28;20052;-67
2021/09/25 11:55:07;;;;;;;2.70;2.50;;;23.50;59.40;;;;;;5056456;28;20091;-68
2021/09/25 11:57:33;;;;;;;2.35;2.15;;;23.60;59.20;;;;;;5054454;28;20130;-67
2021/09/25 11:59:58;;;;;;;2.83;2.47;;;23.60;58.50;;;;;;5054066;28;20036;-68
2021/09/25 12:02:37;;;;;;;2.55;2.10;;;23.60;58.70;;;;;;5053454;28;20045;-68
2021/09/25 12:05:03;;;;;;;2.80;2.20;;;23.70;57.60;;;;;;5050653;28;20504;-68
2021/09/25 12:07:45;;;;;;;2.20;2.00;;;23.70;58.20;;;;;;5054453;28;20082;-67
2021/09/25 12:10:17;;;;;;;3.65;2.22;;;23.80;58.20;;;;;;5054025;28;20044;-67
2021/09/25 12:12:43;;;;;;;2.20;2.00;;;23.80;58.40;;;;;;5044139;28;20388;-67
2021/09/25 12:15:09;;;;;;;2.20;1.90;;;23.90;58.90;;;;;;5055966;28;20037;-67
2021/09/25 12:17:34;;;;;;;2.42;2.30;;;24.00;58.60;;;;;;5051468;28;20029;-67
2021/09/25 12:20:16;;;;;;;10.20;2.80;;;24.00;58.40;;;;;;5053653;28;20032;-67
2021/09/25 12:22:44;;;;;;;1.90;1.80;;;24.00;57.30;;;;;;5044084;28;20051;-66
2021/09/25 12:25:11;;;;;;;2.05;1.95;;;24.10;58.30;;;;;;5053867;28;20043;-67
2021/09/25 12:27:42;;;;;;;1.92;1.83;;;24.10;58.00;;;;;;5051204;28;20031;-67
2021/09/25 12:30:09;;;;;;;2.05;1.85;;;24.10;57.90;;;;;;5052226;28;20029;-67
2021/09/25 12:32:35;;;;;;;2.22;1.95;;;24.20;57.80;;;;;;5053106;28;20027;-67
2021/09/25 12:35:00;;;;;;;2.30;2.10;;;24.20;57.70;;;;;;5047860;28;20033;-67
2021/09/25 12:37:26;;;;;;;2.38;2.17;;;24.30;57.60;;;;;;5049319;28;20040;-66
2021/09/25 12:39:52;;;;;;;2.40;2.20;;;24.30;57.30;;;;;;5055329;28;20063;-67
2021/09/25 12:42:26;;;;;;;2.20;2.00;;;24.40;57.20;;;;;;5052349;28;20085;-66
2021/09/25 12:44:54;;;;;;;8.68;2.38;;;24.40;56.80;;;;;;5050649;28;20402;-67
2021/09/25 12:47:33;;;;;;;2.30;2.10;;;24.40;57.00;;;;;;5056026;28;20653;-68
2021/09/25 12:50:19;;;;;;;1.80;1.70;;;24.50;56.30;;;;;;5045919;28;20066;-67